sensor_id;sensor_type;location;lat;lon;timestamp;pressure;altitude;pressure_sealevel;temperature;humidity
84696;BME280;74913;40.204;44.532;2024-01-07T00:01:34;88807.31;;;2.59;44.02
84696;BME280;74913;40.204;44.532;2024-01-07T00:04:00;88812.34;;;2.57;44.07
84696;BME280;74913;40.204;44.532;2024-01-07T00:06:25;88804.84;;;2.55;43.92
84696;BME280;74913;40.204;44.532;2024-01-07T00:08:51;88807.03;;;2.57;43.62
84696;BME280;74913;40.204;44.532;2024-01-07T00:11:16;88801.44;;;2.55;43.79
84696;BME280;74913;40.204;44.532;2024-01-07T00:13:42;88792.00;;;2.54;43.96
84696;BME280;74913;40.204;44.532;2024-01-07T00:16:08;88793.47;;;2.55;43.78
84696;BME280;74913;40.204;44.532;2024-01-07T00:18:33;88797.59;;;2.56;43.98
84696;BME280;74913;40.204;44.532;2024-01-07T00:20:59;88806.75;;;2.55;44.13
84696;BME280;74913;40.204;44.532;2024-01-07T00:23:25;88796.13;;;2.55;43.71
84696;BME280;74913;40.204;44.532;2024-01-07T00:25:51;88787.88;;;2.53;43.85
84696;BME280;74913;40.204;44.532;2024-01-07T00:28:16;88789.34;;;2.54;43.69
84696;BME280;74913;40.204;44.532;2024-01-07T00:30:42;88795.41;;;2.54;43.99
84696;BME280;74913;40.204;44.532;2024-01-07T00:33:07;88785.66;;;2.51;44.00
84696;BME280;74913;40.204;44.532;2024-01-07T00:35:33;88776.09;;;2.45;43.88
84696;BME280;74913;40.204;44.532;2024-01-07T00:37:59;88781.25;;;2.48;44.14
84696;BME280;74913;40.204;44.532;2024-01-07T00:40:24;88784.91;;;2.51;44.23
84696;BME280;74913;40.204;44.532;2024-01-07T00:42:50;88781.09;;;2.52;44.24
84696;BME280;74913;40.204;44.532;2024-01-07T00:45:17;88767.13;;;2.42;44.14
84696;BME280;74913;40.204;44.532;2024-01-07T00:47:43;88774.47;;;2.47;44.36
84696;BME280;74913;40.204;44.532;2024-01-07T00:50:08;88781.09;;;2.52;43.57
84696;BME280;74913;40.204;44.532;2024-01-07T00:52:34;88779.03;;;2.47;44.08
84696;BME280;74913;40.204;44.532;2024-01-07T00:55:03;88778.75;;;2.45;43.53
84696;BME280;74913;40.204;44.532;2024-01-07T00:57:29;88766.38;;;2.42;43.46
84696;BME280;74913;40.204;44.532;2024-01-07T00:59:55;88758.13;;;2.40;43.62
84696;BME280;74913;40.204;44.532;2024-01-07T01:02:21;88753.72;;;2.37;43.81
84696;BME280;74913;40.204;44.532;2024-01-07T01:04:47;88762.13;;;2.35;43.54
84696;BME280;74913;40.204;44.532;2024-01-07T01:07:14;88760.38;;;2.32;43.64
84696;BME280;74913;40.204;44.532;2024-01-07T01:09:39;88747.25;;;2.29;43.47
84696;BME280;74913;40.204;44.532;2024-01-07T01:12:05;88752.28;;;2.27;43.34
84696;BME280;74913;40.204;44.532;2024-01-07T01:14:31;88754.63;;;2.25;43.84
84696;BME280;74913;40.204;44.532;2024-01-07T01:16:56;88757.13;;;2.28;43.52
84696;BME280;74913;40.204;44.532;2024-01-07T01:19:23;88758.75;;;2.26;43.44
84696;BME280;74913;40.204;44.532;2024-01-07T01:21:49;88752.00;;;2.25;43.82
84696;BME280;74913;40.204;44.532;2024-01-07T01:24:15;88750.78;;;2.26;43.45
84696;BME280;74913;40.204;44.532;2024-01-07T01:26:40;88748.47;;;2.19;43.82
84696;BME280;74913;40.204;44.532;2024-01-07T01:29:06;88751.25;;;2.24;44.05
84696;BME280;74913;40.204;44.532;2024-01-07T01:31:32;88744.44;;;2.23;43.87
84696;BME280;74913;40.204;44.532;2024-01-07T01:33:57;88743.00;;;2.22;43.83
84696;BME280;74913;40.204;44.532;2024-01-07T01:36:23;88748.03;;;2.20;43.86
84696;BME280;74913;40.204;44.532;2024-01-07T01:38:49;88752.59;;;2.20;44.07
84696;BME280;74913;40.204;44.532;2024-01-07T01:41:16;88762.94;;;2.18;44.01
84696;BME280;74913;40.204;44.532;2024-01-07T01:43:42;88750.81;;;2.17;44.06
84696;BME280;74913;40.204;44.532;2024-01-07T01:46:07;88749.19;;;2.19;43.86
84696;BME280;74913;40.204;44.532;2024-01-07T01:48:35;88741.69;;;2.09;44.30
84696;BME280;74913;40.204;44.532;2024-01-07T01:51:02;88759.41;;;2.12;44.11
84696;BME280;74913;40.204;44.532;2024-01-07T01:53:27;88745.84;;;2.10;43.66
84696;BME280;74913;40.204;44.532;2024-01-07T01:55:55;88741.56;;;2.03;43.95
84696;BME280;74913;40.204;44.532;2024-01-07T01:58:23;88736.25;;;2.03;43.57
84696;BME280;74913;40.204;44.532;2024-01-07T02:00:49;88745.41;;;2.02;43.83
84696;BME280;74913;40.204;44.532;2024-01-07T02:03:17;88746.31;;;1.99;43.52
84696;BME280;74913;40.204;44.532;2024-01-07T02:05:42;88750.88;;;1.99;43.75
84696;BME280;74913;40.204;44.532;2024-01-07T02:08:09;88750.88;;;1.99;43.81
84696;BME280;74913;40.204;44.532;2024-01-07T02:10:34;88747.94;;;1.97;43.83
84696;BME280;74913;40.204;44.532;2024-01-07T02:13:05;88754.72;;;1.98;43.88
84696;BME280;74913;40.204;44.532;2024-01-07T02:15:31;88749.09;;;1.95;43.56
84696;BME280;74913;40.204;44.532;2024-01-07T02:17:57;88748.53;;;1.91;43.95
84696;BME280;74913;40.204;44.532;2024-01-07T02:20:23;88750.72;;;1.93;43.88
84696;BME280;74913;40.204;44.532;2024-01-07T02:22:49;88758.25;;;1.94;44.13
84696;BME280;74913;40.204;44.532;2024-01-07T02:25:14;88759.44;;;1.93;43.94
84696;BME280;74913;40.204;44.532;2024-01-07T02:27:40;88758.53;;;1.97;43.54
84696;BME280;74913;40.204;44.532;2024-01-07T02:30:06;88766.78;;;1.99;43.42
84696;BME280;74913;40.204;44.532;2024-01-07T02:32:32;88766.66;;;2.02;42.88
84696;BME280;74913;40.204;44.532;2024-01-07T02:35:00;88749.25;;;2.01;43.20
84696;BME280;74913;40.204;44.532;2024-01-07T02:37:26;88753.53;;;2.08;42.96
84696;BME280;74913;40.204;44.532;2024-01-07T02:39:51;88752.03;;;2.07;42.69
84696;BME280;74913;40.204;44.532;2024-01-07T02:42:17;88745.09;;;2.09;42.96
84696;BME280;74913;40.204;44.532;2024-01-07T02:44:43;88755.56;;;2.13;43.26
84696;BME280;74913;40.204;44.532;2024-01-07T02:47:08;88751.56;;;2.17;42.80
84696;BME280;74913;40.204;44.532;2024-01-07T02:49:34;88748.47;;;2.19;42.97
84696;BME280;74913;40.204;44.532;2024-01-07T02:52:00;88745.81;;;2.19;42.37
84696;BME280;74913;40.204;44.532;2024-01-07T02:54:25;88752.31;;;2.18;43.13
84696;BME280;74913;40.204;44.532;2024-01-07T02:56:51;88749.06;;;2.23;43.14
84696;BME280;74913;40.204;44.532;2024-01-07T02:59:17;88763.50;;;2.22;42.96
84696;BME280;74913;40.204;44.532;2024-01-07T03:01:42;88753.19;;;2.15;42.71
84696;BME280;74913;40.204;44.532;2024-01-07T03:04:10;88770.16;;;2.17;42.82
84696;BME280;74913;40.204;44.532;2024-01-07T03:06:36;88765.88;;;2.11;42.59
84696;BME280;74913;40.204;44.532;2024-01-07T03:09:01;88759.25;;;2.06;42.71
84696;BME280;74913;40.204;44.532;2024-01-07T03:11:28;88769.31;;;2.02;43.06
84696;BME280;74913;40.204;44.532;2024-01-07T03:13:54;88769.03;;;2.00;42.92
84696;BME280;74913;40.204;44.532;2024-01-07T03:16:21;88778.59;;;1.98;43.36
84696;BME280;74913;40.204;44.532;2024-01-07T03:18:47;88775.34;;;1.93;43.31
84696;BME280;74913;40.204;44.532;2024-01-07T03:21:23;88790.38;;;1.97;43.30
84696;BME280;74913;40.204;44.532;2024-01-07T03:23:49;88780.66;;;1.93;43.11
84696;BME280;74913;40.204;44.532;2024-01-07T03:26:17;88778.28;;;1.95;43.07
84696;BME280;74913;40.204;44.532;2024-01-07T03:28:43;88771.06;;;1.96;43.22
84696;BME280;74913;40.204;44.532;2024-01-07T03:31:12;88774.31;;;2.00;42.97
84696;BME280;74913;40.204;44.532;2024-01-07T03:33:39;88773.25;;;2.07;43.19
84696;BME280;74913;40.204;44.532;2024-01-07T03:36:11;88774.75;;;2.08;43.19
84696;BME280;74913;40.204;44.532;2024-01-07T03:38:38;88777.69;;;2.10;42.73
84696;BME280;74913;40.204;44.532;2024-01-07T03:41:04;88785.94;;;2.12;43.28
84696;BME280;74913;40.204;44.532;2024-01-07T03:43:29;88770.16;;;2.08;42.54
84696;BME280;74913;40.204;44.532;2024-01-07T03:45:55;88780.59;;;2.21;42.75
84696;BME280;74913;40.204;44.532;2024-01-07T03:48:21;88775.59;;;2.23;42.85
84696;BME280;74913;40.204;44.532;2024-01-07T03:50:46;88786.50;;;2.25;42.47
84696;BME280;74913;40.204;44.532;2024-01-07T03:53:12;88787.66;;;2.24;42.62
84696;BME280;74913;40.204;44.532;2024-01-07T03:55:38;88790.59;;;2.26;42.47
84696;BME280;74913;40.204;44.532;2024-01-07T03:58:05;88778.53;;;2.16;42.73
84696;BME280;74913;40.204;44.532;2024-01-07T04:00:31;88788.41;;;2.24;42.17
84696;BME280;74913;40.204;44.532;2024-01-07T04:02:56;88788.56;;;2.21;42.30
84696;BME280;74913;40.204;44.532;2024-01-07T04:05:22;88793.28;;;2.17;42.59
84696;BME280;74913;40.204;44.532;2024-01-07T04:07:47;88802.44;;;2.16;42.40
84696;BME280;74913;40.204;44.532;2024-01-07T04:10:16;88772.84;;;1.99;42.52
84696;BME280;74913;40.204;44.532;2024-01-07T04:12:41;88803.63;;;2.15;43.20
84696;BME280;74913;40.204;44.532;2024-01-07T04:15:07;88795.94;;;2.17;42.83
84696;BME280;74913;40.204;44.532;2024-01-07T04:17:33;88795.22;;;2.16;42.73
84696;BME280;74913;40.204;44.532;2024-01-07T04:19:59;88788.00;;;2.17;42.95
84696;BME280;74913;40.204;44.532;2024-01-07T04:22:24;88792.13;;;2.18;43.10
84696;BME280;74913;40.204;44.532;2024-01-07T04:24:50;88789.47;;;2.18;43.30
84696;BME280;74913;40.204;44.532;2024-01-07T04:27:15;88785.63;;;2.19;43.20
84696;BME280;74913;40.204;44.532;2024-01-07T04:29:41;88780.91;;;2.23;43.51
84696;BME280;74913;40.204;44.532;2024-01-07T04:32:07;88775.59;;;2.23;43.03
84696;BME280;74913;40.204;44.532;2024-01-07T04:34:32;88779.41;;;2.22;43.37
84696;BME280;74913;40.204;44.532;2024-01-07T04:36:58;88786.03;;;2.26;43.74
84696;BME280;74913;40.204;44.532;2024-01-07T04:39:23;88795.03;;;2.29;43.21
84696;BME280;74913;40.204;44.532;2024-01-07T04:41:49;88790.78;;;2.22;43.87
84696;BME280;74913;40.204;44.532;2024-01-07T04:44:15;88799.91;;;2.21;43.71
84696;BME280;74913;40.204;44.532;2024-01-07T04:46:40;88802.00;;;2.17;43.72
84696;BME280;74913;40.204;44.532;2024-01-07T04:49:06;88807.75;;;2.16;43.70
84696;BME280;74913;40.204;44.532;2024-01-07T04:51:33;88804.66;;;2.17;44.10
84696;BME280;74913;40.204;44.532;2024-01-07T04:53:58;88809.50;;;2.19;43.78
84696;BME280;74913;40.204;44.532;2024-01-07T04:56:24;88815.41;;;2.14;43.90
84696;BME280;74913;40.204;44.532;2024-01-07T04:58:50;88799.81;;;2.07;44.18
84696;BME280;74913;40.204;44.532;2024-01-07T05:01:15;88813.03;;;2.16;44.20
84696;BME280;74913;40.204;44.532;2024-01-07T05:03:41;88822.03;;;2.18;44.29
84696;BME280;74913;40.204;44.532;2024-01-07T05:06:10;88819.25;;;2.22;44.44
84696;BME280;74913;40.204;44.532;2024-01-07T05:08:37;88817.31;;;2.22;44.63
84696;BME280;74913;40.204;44.532;2024-01-07T05:11:03;88813.66;;;2.20;44.60
84696;BME280;74913;40.204;44.532;2024-01-07T05:13:30;88818.22;;;2.19;44.36
84696;BME280;74913;40.204;44.532;2024-01-07T05:15:56;88821.75;;;2.25;44.52
84696;BME280;74913;40.204;44.532;2024-01-07T05:18:22;88826.47;;;2.30;44.61
84696;BME280;74913;40.204;44.532;2024-01-07T05:20:48;88831.59;;;2.34;44.55
84696;BME280;74913;40.204;44.532;2024-01-07T05:23:14;88828.06;;;2.37;44.34
84696;BME280;74913;40.204;44.532;2024-01-07T05:25:42;88827.91;;;2.40;45.07
84696;BME280;74913;40.204;44.532;2024-01-07T05:28:08;88815.66;;;2.43;44.50
84696;BME280;74913;40.204;44.532;2024-01-07T05:30:34;88820.66;;;2.50;44.57
84696;BME280;74913;40.204;44.532;2024-01-07T05:32:59;88827.13;;;2.58;44.76
84696;BME280;74913;40.204;44.532;2024-01-07T05:35:25;88821.16;;;2.63;44.28
84696;BME280;74913;40.204;44.532;2024-01-07T05:37:51;88820.56;;;2.68;44.42
84696;BME280;74913;40.204;44.532;2024-01-07T05:40:16;88824.66;;;2.78;44.49
84696;BME280;74913;40.204;44.532;2024-01-07T05:42:42;88827.28;;;2.87;44.24
84696;BME280;74913;40.204;44.532;2024-01-07T05:45:08;88833.56;;;2.99;44.11
84696;BME280;74913;40.204;44.532;2024-01-07T05:47:33;88831.59;;;3.08;44.09
84696;BME280;74913;40.204;44.532;2024-01-07T05:49:59;88838.34;;;3.18;43.78
84696;BME280;74913;40.204;44.532;2024-01-07T05:52:25;88832.41;;;3.23;43.38
84696;BME280;74913;40.204;44.532;2024-01-07T05:54:50;88828.56;;;3.24;43.30
84696;BME280;74913;40.204;44.532;2024-01-07T05:57:16;88826.19;;;3.27;43.41
84696;BME280;74913;40.204;44.532;2024-01-07T05:59:43;88838.72;;;3.35;43.50
84696;BME280;74913;40.204;44.532;2024-01-07T06:02:09;88838.72;;;3.35;43.20
84696;BME280;74913;40.204;44.532;2024-01-07T06:04:37;88833.94;;;3.39;42.98
84696;BME280;74913;40.204;44.532;2024-01-07T06:07:03;88834.41;;;3.38;43.45
84696;BME280;74913;40.204;44.532;2024-01-07T06:09:28;88829.03;;;3.47;42.91
84696;BME280;74913;40.204;44.532;2024-01-07T06:11:54;88845.03;;;3.61;43.43
84696;BME280;74913;40.204;44.532;2024-01-07T06:14:22;88841.59;;;3.70;43.22
84696;BME280;74913;40.204;44.532;2024-01-07T06:16:48;88842.41;;;3.76;43.12
84696;BME280;74913;40.204;44.532;2024-01-07T06:19:16;88839.88;;;3.81;43.64
84696;BME280;74913;40.204;44.532;2024-01-07T06:21:42;88840.88;;;3.84;43.37
84696;BME280;74913;40.204;44.532;2024-01-07T06:24:08;88829.41;;;3.78;43.11
84696;BME280;74913;40.204;44.532;2024-01-07T06:26:34;88847.81;;;3.91;43.20
84696;BME280;74913;40.204;44.532;2024-01-07T06:29:00;88848.81;;;3.93;43.39
84696;BME280;74913;40.204;44.532;2024-01-07T06:31:26;88851.00;;;3.95;43.27
84696;BME280;74913;40.204;44.532;2024-01-07T06:33:52;88843.03;;;3.95;42.96
84696;BME280;74913;40.204;44.532;2024-01-07T06:36:18;88851.66;;;4.04;43.27
84696;BME280;74913;40.204;44.532;2024-01-07T06:38:44;88850.75;;;4.07;43.05
84696;BME280;74913;40.204;44.532;2024-01-07T06:41:11;88849.59;;;4.08;43.04
84696;BME280;74913;40.204;44.532;2024-01-07T06:43:38;88850.88;;;4.13;42.98
84696;BME280;74913;40.204;44.532;2024-01-07T06:46:04;88848.31;;;4.18;43.08
84696;BME280;74913;40.204;44.532;2024-01-07T06:48:30;88839.13;;;4.19;43.37
84696;BME280;74913;40.204;44.532;2024-01-07T06:50:55;88827.56;;;4.22;42.94
84696;BME280;74913;40.204;44.532;2024-01-07T06:53:21;88831.41;;;4.21;42.84
84696;BME280;74913;40.204;44.532;2024-01-07T06:55:47;88835.81;;;4.24;43.06
84696;BME280;74913;40.204;44.532;2024-01-07T06:58:12;88833.25;;;4.30;42.98
84696;BME280;74913;40.204;44.532;2024-01-07T07:00:38;88834.53;;;4.34;43.24
84696;BME280;74913;40.204;44.532;2024-01-07T07:03:04;88829.75;;;4.38;43.16
84696;BME280;74913;40.204;44.532;2024-01-07T07:05:31;88813.06;;;4.38;43.05
84696;BME280;74913;40.204;44.532;2024-01-07T07:07:57;88818.56;;;4.49;42.68
84696;BME280;74913;40.204;44.532;2024-01-07T07:10:23;88823.72;;;4.52;42.71
84696;BME280;74913;40.204;44.532;2024-01-07T07:12:49;88826.00;;;4.60;42.55
84696;BME280;74913;40.204;44.532;2024-01-07T07:15:16;88816.91;;;4.66;42.54
84696;BME280;74913;40.204;44.532;2024-01-07T07:17:42;88813.41;;;4.75;42.58
84696;BME280;74913;40.204;44.532;2024-01-07T07:20:08;88802.22;;;4.71;42.62
84696;BME280;74913;40.204;44.532;2024-01-07T07:22:34;88815.97;;;4.84;42.12
84696;BME280;74913;40.204;44.532;2024-01-07T07:25:00;88808.25;;;4.86;42.84
84696;BME280;74913;40.204;44.532;2024-01-07T07:27:26;88804.94;;;4.91;42.25
84696;BME280;74913;40.204;44.532;2024-01-07T07:29:51;88813.00;;;4.96;42.59
84696;BME280;74913;40.204;44.532;2024-01-07T07:32:17;88804.81;;;5.00;42.54
84696;BME280;74913;40.204;44.532;2024-01-07T07:34:43;88796.28;;;4.96;42.45
84696;BME280;74913;40.204;44.532;2024-01-07T07:37:09;88815.38;;;5.09;42.06
84696;BME280;74913;40.204;44.532;2024-01-07T07:39:35;88809.38;;;5.14;42.33
84696;BME280;74913;40.204;44.532;2024-01-07T07:42:00;88803.38;;;5.19;42.29
84696;BME280;74913;40.204;44.532;2024-01-07T07:44:26;88801.53;;;5.25;42.13
84696;BME280;74913;40.204;44.532;2024-01-07T07:46:52;88804.47;;;5.27;42.11
84696;BME280;74913;40.204;44.532;2024-01-07T07:49:17;88805.28;;;5.33;42.27
84696;BME280;74913;40.204;44.532;2024-01-07T07:51:43;88805.56;;;5.35;42.55
84696;BME280;74913;40.204;44.532;2024-01-07T07:54:09;88795.16;;;5.37;42.03
84696;BME280;74913;40.204;44.532;2024-01-07T07:56:35;88792.47;;;5.37;42.17
84696;BME280;74913;40.204;44.532;2024-01-07T07:59:02;88782.34;;;5.41;41.96
84696;BME280;74913;40.204;44.532;2024-01-07T08:01:28;88775.53;;;5.40;41.83
84696;BME280;74913;40.204;44.532;2024-01-07T08:03:54;88771.22;;;5.43;41.73
84696;BME280;74913;40.204;44.532;2024-01-07T08:06:19;88767.41;;;5.49;41.79
84696;BME280;74913;40.204;44.532;2024-01-07T08:08:45;88748.47;;;5.47;41.75
84696;BME280;74913;40.204;44.532;2024-01-07T08:11:11;88757.81;;;5.57;41.87
84696;BME280;74913;40.204;44.532;2024-01-07T08:13:37;88759.81;;;5.62;41.82
84696;BME280;74913;40.204;44.532;2024-01-07T08:16:04;88755.19;;;5.63;41.84
84696;BME280;74913;40.204;44.532;2024-01-07T08:18:31;88757.19;;;5.68;41.90
84696;BME280;74913;40.204;44.532;2024-01-07T08:20:57;88763.28;;;5.68;41.48
84696;BME280;74913;40.204;44.532;2024-01-07T08:23:24;88750.88;;;5.65;41.86
84696;BME280;74913;40.204;44.532;2024-01-07T08:25:49;88754.59;;;5.73;42.03
84696;BME280;74913;40.204;44.532;2024-01-07T08:28:17;88758.97;;;5.76;41.97
84696;BME280;74913;40.204;44.532;2024-01-07T08:30:42;88766.31;;;5.81;41.54
84696;BME280;74913;40.204;44.532;2024-01-07T08:33:08;88760.06;;;5.85;41.44
84696;BME280;74913;40.204;44.532;2024-01-07T08:35:33;88756.22;;;5.86;41.57
84696;BME280;74913;40.204;44.532;2024-01-07T08:37:59;88738.16;;;5.80;41.74
84696;BME280;74913;40.204;44.532;2024-01-07T08:40:24;88746.06;;;5.90;41.40
84696;BME280;74913;40.204;44.532;2024-01-07T08:42:50;88743.84;;;5.88;41.42
84696;BME280;74913;40.204;44.532;2024-01-07T08:45:16;88745.13;;;5.93;41.79
84696;BME280;74913;40.204;44.532;2024-01-07T08:47:41;88736.63;;;5.94;41.57
84696;BME280;74913;40.204;44.532;2024-01-07T08:50:07;88732.03;;;5.95;41.81
84696;BME280;74913;40.204;44.532;2024-01-07T08:52:33;88740.56;;;5.99;42.07
84696;BME280;74913;40.204;44.532;2024-01-07T08:55:01;88742.03;;;6.00;41.91
84696;BME280;74913;40.204;44.532;2024-01-07T08:57:29;88738.16;;;6.01;41.15
84696;BME280;74913;40.204;44.532;2024-01-07T08:59:54;88733.06;;;6.03;41.62
84696;BME280;74913;40.204;44.532;2024-01-07T09:02:20;88738.00;;;6.10;41.46
84696;BME280;74913;40.204;44.532;2024-01-07T09:04:46;88734.66;;;6.15;41.50
84696;BME280;74913;40.204;44.532;2024-01-07T09:07:11;88720.09;;;6.16;41.29
84696;BME280;74913;40.204;44.532;2024-01-07T09:09:37;88721.53;;;6.17;41.42
84696;BME280;74913;40.204;44.532;2024-01-07T09:12:03;88729.09;;;6.18;41.47
84696;BME280;74913;40.204;44.532;2024-01-07T09:14:29;88722.78;;;6.21;41.16
84696;BME280;74913;40.204;44.532;2024-01-07T09:16:55;88722.59;;;6.25;40.76
84696;BME280;74913;40.204;44.532;2024-01-07T09:19:20;88704.78;;;6.16;41.58
84696;BME280;74913;40.204;44.532;2024-01-07T09:21:46;88712.69;;;6.31;41.43
84696;BME280;74913;40.204;44.532;2024-01-07T09:24:12;88705.94;;;6.35;40.51
84696;BME280;74913;40.204;44.532;2024-01-07T09:26:37;88707.38;;;6.36;40.95
84696;BME280;74913;40.204;44.532;2024-01-07T09:29:03;88680.34;;;6.29;40.90
84696;BME280;74913;40.204;44.532;2024-01-07T09:31:29;88691.66;;;6.44;40.68
84696;BME280;74913;40.204;44.532;2024-01-07T09:33:54;88690.72;;;6.47;40.80
84696;BME280;74913;40.204;44.532;2024-01-07T09:36:20;88677.81;;;6.45;40.66
84696;BME280;74913;40.204;44.532;2024-01-07T09:38:46;88672.69;;;6.42;39.81
84696;BME280;74913;40.204;44.532;2024-01-07T09:41:11;88674.66;;;6.47;40.71
84696;BME280;74913;40.204;44.532;2024-01-07T09:43:37;88670.56;;;6.52;40.55
84696;BME280;74913;40.204;44.532;2024-01-07T09:46:03;88668.88;;;6.54;40.62
84696;BME280;74913;40.204;44.532;2024-01-07T09:48:29;88667.94;;;6.57;39.98
84696;BME280;74913;40.204;44.532;2024-01-07T09:50:57;88654.56;;;6.57;40.41
84696;BME280;74913;40.204;44.532;2024-01-07T09:53:25;88659.22;;;6.62;39.83
84696;BME280;74913;40.204;44.532;2024-01-07T09:56:03;88652.69;;;6.63;39.79
84696;BME280;74913;40.204;44.532;2024-01-07T09:58:31;88656.81;;;6.64;39.85
84696;BME280;74913;40.204;44.532;2024-01-07T10:00:57;88650.75;;;6.64;40.00
84696;BME280;74913;40.204;44.532;2024-01-07T10:03:23;88641.75;;;6.67;40.06
84696;BME280;74913;40.204;44.532;2024-01-07T10:05:49;88644.22;;;6.70;39.69
84696;BME280;74913;40.204;44.532;2024-01-07T10:08:15;88637.69;;;6.77;40.00
84696;BME280;74913;40.204;44.532;2024-01-07T10:10:40;88626.78;;;6.80;39.73
84696;BME280;74913;40.204;44.532;2024-01-07T10:13:06;88631.66;;;6.87;39.89
84696;BME280;74913;40.204;44.532;2024-01-07T10:15:34;88630.47;;;6.88;40.04
84696;BME280;74913;40.204;44.532;2024-01-07T10:18:03;88629.25;;;6.89;39.00
84696;BME280;74913;40.204;44.532;2024-01-07T10:20:32;88633.63;;;6.92;39.23
84696;BME280;74913;40.204;44.532;2024-01-07T10:22:58;88632.16;;;6.91;39.26
84696;BME280;74913;40.204;44.532;2024-01-07T10:25:24;88632.69;;;6.95;39.20
84696;BME280;74913;40.204;44.532;2024-01-07T10:27:50;88632.69;;;6.95;39.45
84696;BME280;74913;40.204;44.532;2024-01-07T10:30:16;88625.84;;;6.94;39.72
84696;BME280;74913;40.204;44.532;2024-01-07T10:32:42;88632.69;;;6.95;38.79
84696;BME280;74913;40.204;44.532;2024-01-07T10:35:13;88621.25;;;6.95;39.23
84696;BME280;74913;40.204;44.532;2024-01-07T10:37:42;88628.31;;;6.98;39.30
84696;BME280;74913;40.204;44.532;2024-01-07T10:40:11;88604.44;;;6.83;39.65
84696;BME280;74913;40.204;44.532;2024-01-07T10:42:38;88609.34;;;6.96;39.17
84696;BME280;74913;40.204;44.532;2024-01-07T10:45:04;88622.03;;;7.06;39.63
84696;BME280;74913;40.204;44.532;2024-01-07T10:47:31;88618.13;;;7.07;38.96
84696;BME280;74913;40.204;44.532;2024-01-07T10:49:58;88617.19;;;7.10;39.09
84696;BME280;74913;40.204;44.532;2024-01-07T10:52:27;88608.91;;;7.08;39.17
84696;BME280;74913;40.204;44.532;2024-01-07T10:54:57;88608.22;;;7.14;39.43
84696;BME280;74913;40.204;44.532;2024-01-07T11:00:09;88615.75;;;7.15;39.11
84696;BME280;74913;40.204;44.532;2024-01-07T11:03:31;88599.16;;;7.05;39.14
84696;BME280;74913;40.204;44.532;2024-01-07T11:06:11;88614.28;;;7.20;39.31
84696;BME280;74913;40.204;44.532;2024-01-07T11:08:36;88620.38;;;7.20;38.34
84696;BME280;74913;40.204;44.532;2024-01-07T11:11:10;88621.84;;;7.21;39.15
84696;BME280;74913;40.204;44.532;2024-01-07T11:13:37;88620.38;;;7.20;38.92
84696;BME280;74913;40.204;44.532;2024-01-07T11:16:05;88587.72;;;6.99;38.82
84696;BME280;74913;40.204;44.532;2024-01-07T11:18:31;88628.94;;;7.30;38.86
84696;BME280;74913;40.204;44.532;2024-01-07T11:21:02;88636.00;;;7.33;39.04
84696;BME280;74913;40.204;44.532;2024-01-07T11:23:30;88627.00;;;7.36;39.23
84696;BME280;74913;40.204;44.532;2024-01-07T11:26:01;88616.50;;;7.27;39.04
84696;BME280;74913;40.204;44.532;2024-01-07T11:31:08;88619.69;;;7.31;38.26
84696;BME280;74913;40.204;44.532;2024-01-07T11:33:36;88609.47;;;7.24;38.91
84696;BME280;74913;40.204;44.532;2024-01-07T11:36:04;88606.06;;;7.29;38.10
84696;BME280;74913;40.204;44.532;2024-01-07T11:38:30;88611.41;;;7.34;38.57
84696;BME280;74913;40.204;44.532;2024-01-07T11:40:56;88618.50;;;7.37;38.64
84696;BME280;74913;40.204;44.532;2024-01-07T11:43:22;88608.53;;;7.38;38.39
84696;BME280;74913;40.204;44.532;2024-01-07T11:45:52;88611.69;;;7.36;37.77
84696;BME280;74913;40.204;44.532;2024-01-07T11:48:19;88610.00;;;7.39;38.48
84696;BME280;74913;40.204;44.532;2024-01-07T11:50:44;88603.66;;;7.42;38.79
84696;BME280;74913;40.204;44.532;2024-01-07T11:53:13;88597.34;;;7.45;38.46
84696;BME280;74913;40.204;44.532;2024-01-07T11:55:39;88589.06;;;7.43;38.22
84696;BME280;74913;40.204;44.532;2024-01-07T11:58:05;88581.53;;;7.47;37.98
84696;BME280;74913;40.204;44.532;2024-01-07T12:00:32;88579.34;;;7.45;38.29
84696;BME280;74913;40.204;44.532;2024-01-07T12:03:00;88585.19;;;7.44;38.63
84696;BME280;74913;40.204;44.532;2024-01-07T12:05:30;88589.06;;;7.37;38.71
84696;BME280;74913;40.204;44.532;2024-01-07T12:07:56;88587.34;;;7.34;38.52
84696;BME280;74913;40.204;44.532;2024-01-07T12:10:25;88587.34;;;7.29;38.22
84696;BME280;74913;40.204;44.532;2024-01-07T12:12:50;88598.25;;;7.20;38.68
84696;BME280;74913;40.204;44.532;2024-01-07T12:15:16;88599.66;;;7.09;39.17
84696;BME280;74913;40.204;44.532;2024-01-07T12:17:47;88592.84;;;7.03;38.91
84696;BME280;74913;40.204;44.532;2024-01-07T12:20:20;88592.81;;;6.97;39.37
84696;BME280;74913;40.204;44.532;2024-01-07T12:22:46;88591.59;;;6.98;38.81
84696;BME280;74913;40.204;44.532;2024-01-07T12:25:12;88588.94;;;6.98;39.56
84696;BME280;74913;40.204;44.532;2024-01-07T12:27:40;88599.63;;;7.04;39.02
84696;BME280;74913;40.204;44.532;2024-01-07T12:30:06;88602.09;;;7.07;39.16
84696;BME280;74913;40.204;44.532;2024-01-07T12:32:32;88600.88;;;7.08;39.69
84696;BME280;74913;40.204;44.532;2024-01-07T12:34:58;88608.44;;;7.16;39.70
84696;BME280;74913;40.204;44.532;2024-01-07T12:37:27;88606.75;;;7.18;39.33
84696;BME280;74913;40.204;44.532;2024-01-07T12:39:54;88600.66;;;7.18;38.97
84696;BME280;74913;40.204;44.532;2024-01-07T12:42:19;88587.31;;;7.23;38.94
84696;BME280;74913;40.204;44.532;2024-01-07T12:44:49;88582.22;;;7.31;39.09
84696;BME280;74913;40.204;44.532;2024-01-07T12:47:15;88572.50;;;7.33;39.32
84696;BME280;74913;40.204;44.532;2024-01-07T12:49:41;88567.19;;;7.39;39.14
84696;BME280;74913;40.204;44.532;2024-01-07T12:52:07;88562.03;;;7.35;39.13
84696;BME280;74913;40.204;44.532;2024-01-07T12:54:32;88574.22;;;7.42;39.23
84696;BME280;74913;40.204;44.532;2024-01-07T12:56:58;88578.84;;;7.47;39.14
84696;BME280;74913;40.204;44.532;2024-01-07T12:59:24;88560.84;;;7.42;39.21
84696;BME280;74913;40.204;44.532;2024-01-07T13:01:50;88555.47;;;7.42;38.42